createdAt,value
2023-08-16T00:00:44.548Z,18.04
2023-08-16T00:03:11.333Z,18.02
2023-08-16T00:05:38.165Z,18.01
2023-08-16T00:08:04.911Z,17.98
2023-08-16T00:10:31.579Z,17.97
2023-08-16T00:12:58.257Z,17.96
2023-08-16T00:15:28.828Z,17.94
2023-08-16T00:17:55.998Z,17.95
2023-08-16T00:20:22.853Z,17.95
2023-08-16T00:22:50.848Z,17.94
2023-08-16T00:25:17.658Z,17.91
2023-08-16T00:27:44.417Z,17.94
2023-08-16T00:30:11.798Z,17.91
2023-08-16T00:32:38.988Z,17.90
2023-08-16T00:35:06.790Z,17.91
2023-08-16T00:37:33.475Z,17.88
2023-08-16T00:40:00.125Z,17.88
2023-08-16T00:42:26.800Z,17.86
2023-08-16T00:44:53.548Z,17.87
2023-08-16T00:47:20.226Z,17.89
2023-08-16T00:49:47.020Z,17.86
2023-08-16T00:52:13.958Z,17.87
2023-08-16T00:54:40.945Z,17.87
2023-08-16T00:57:08.502Z,17.88
2023-08-16T00:59:35.199Z,17.88
2023-08-16T01:02:01.902Z,17.89
2023-08-16T01:04:28.777Z,17.89
2023-08-16T01:06:58.900Z,17.89
2023-08-16T01:09:27.194Z,17.90
2023-08-16T01:12:07.412Z,17.86
2023-08-16T01:15:11.160Z,17.85
2023-08-16T01:17:38.332Z,17.82
2023-08-16T01:20:09.010Z,17.79
2023-08-16T01:23:05.955Z,17.72
2023-08-16T01:25:51.136Z,17.69
2023-08-16T01:28:19.368Z,17.66
2023-08-16T01:30:46.804Z,17.64
2023-08-16T01:33:14.539Z,17.63
2023-08-16T01:35:42.342Z,17.66
2023-08-16T01:38:14.135Z,17.56
2023-08-16T01:41:06.893Z,17.58
2023-08-16T01:43:34.708Z,17.63
2023-08-16T01:46:04.139Z,17.56
2023-08-16T01:48:33.717Z,17.56
2023-08-16T01:51:00.643Z,17.49
2023-08-16T01:53:27.566Z,17.54
2023-08-16T01:55:54.256Z,17.55
2023-08-16T01:58:20.944Z,17.54
2023-08-16T02:00:47.702Z,17.57
2023-08-16T02:03:14.405Z,17.58
2023-08-16T02:05:42.701Z,17.61
2023-08-16T02:08:11.508Z,17.59
2023-08-16T02:10:38.357Z,17.57
2023-08-16T02:13:05.112Z,17.56
2023-08-16T02:15:31.889Z,17.52
2023-08-16T02:17:58.735Z,17.48
2023-08-16T02:20:25.432Z,17.47
2023-08-16T02:22:52.087Z,17.46
2023-08-16T02:25:18.754Z,17.47
2023-08-16T02:27:45.408Z,17.47
2023-08-16T02:30:12.115Z,17.45
2023-08-16T02:32:39.013Z,17.43
2023-08-16T02:35:06.006Z,17.41
2023-08-16T02:37:32.616Z,17.40
2023-08-16T02:39:59.294Z,17.36
2023-08-16T02:42:25.918Z,17.33
2023-08-16T02:44:52.513Z,17.32
2023-08-16T02:47:19.158Z,17.30
2023-08-16T02:49:45.937Z,17.26
2023-08-16T02:52:13.509Z,17.24
2023-08-16T02:54:40.446Z,17.19
2023-08-16T02:57:07.210Z,17.16
2023-08-16T02:59:47.596Z,17.11
2023-08-16T03:02:17.515Z,17.12
2023-08-16T03:04:44.694Z,17.12
2023-08-16T03:07:12.128Z,17.09
2023-08-16T03:09:40.099Z,17.12
2023-08-16T03:12:07.976Z,17.09
2023-08-16T03:14:34.706Z,17.04
2023-08-16T03:17:01.651Z,17.09
2023-08-16T03:19:28.394Z,17.11
2023-08-16T03:21:55.794Z,17.10
2023-08-16T03:24:23.411Z,17.08
2023-08-16T03:26:50.103Z,17.07
2023-08-16T03:29:16.748Z,17.09
2023-08-16T03:31:43.585Z,17.12
2023-08-16T03:34:10.190Z,17.16
2023-08-16T03:36:36.835Z,17.14
2023-08-16T03:39:06.505Z,17.12
2023-08-16T03:41:35.021Z,17.12
2023-08-16T03:44:02.236Z,17.15
2023-08-16T03:46:29.113Z,17.18
2023-08-16T03:48:55.923Z,17.18
2023-08-16T03:51:22.587Z,17.20
2023-08-16T03:53:49.247Z,17.22
2023-08-16T03:56:15.941Z,17.23
2023-08-16T03:58:42.645Z,17.23
2023-08-16T04:01:09.248Z,17.13
2023-08-16T04:03:36.111Z,17.13
2023-08-16T04:06:02.864Z,17.13
2023-08-16T04:08:29.488Z,17.09
2023-08-16T04:10:56.148Z,16.91
2023-08-16T04:13:22.787Z,16.92
2023-08-16T04:15:50.465Z,16.96
2023-08-16T04:18:17.097Z,16.99
2023-08-16T04:20:44.909Z,17.00
2023-08-16T04:23:11.546Z,17.02
2023-08-16T04:25:38.161Z,17.03
2023-08-16T04:30:55.588Z,17.05
2023-08-16T04:33:22.221Z,17.12
2023-08-16T04:35:48.868Z,17.13
2023-08-16T04:38:17.299Z,17.17
2023-08-16T04:40:44.001Z,17.22
2023-08-16T04:43:10.619Z,17.24
2023-08-16T04:45:37.274Z,17.24
2023-08-16T04:48:05.218Z,17.25
2023-08-16T04:50:31.897Z,17.25
2023-08-16T04:52:58.546Z,17.25
2023-08-16T04:55:25.345Z,17.26
2023-08-16T04:57:51.996Z,17.23
2023-08-16T05:03:10.824Z,17.17
2023-08-16T05:05:37.764Z,17.17
2023-08-16T05:08:06.146Z,17.18
2023-08-16T05:10:32.748Z,17.12
2023-08-16T05:12:59.427Z,17.11
2023-08-16T05:15:26.596Z,17.15
2023-08-16T05:17:53.703Z,17.24
2023-08-16T05:20:20.897Z,17.29
2023-08-16T05:22:48.818Z,17.26
2023-08-16T05:25:15.450Z,17.25
2023-08-16T05:27:42.027Z,17.32
2023-08-16T05:30:09.060Z,17.29
2023-08-16T05:32:35.832Z,17.31
2023-08-16T05:37:55.127Z,17.35
2023-08-16T07:22:31.825Z,18.68
2023-08-16T07:25:00.635Z,18.69
2023-08-16T07:27:29.035Z,18.74
2023-08-16T07:29:55.759Z,18.84
2023-08-16T07:32:23.945Z,18.99
2023-08-16T07:34:50.870Z,19.45
2023-08-16T07:37:18.614Z,19.83
2023-08-16T07:39:45.742Z,19.99
2023-08-16T07:42:12.341Z,20.16
2023-08-16T07:44:39.039Z,20.29
2023-08-16T07:47:06.148Z,20.33
2023-08-16T07:49:32.859Z,20.63
2023-08-16T07:51:59.614Z,20.63
2023-08-16T07:54:26.427Z,20.95
2023-08-16T07:56:53.392Z,21.17
2023-08-16T07:59:20.428Z,21.15
2023-08-16T08:01:47.236Z,21.62
2023-08-16T08:04:13.948Z,21.92
2023-08-16T08:06:41.314Z,21.97
2023-08-16T08:09:08.227Z,21.99
2023-08-16T08:11:34.827Z,22.13
2023-08-16T08:14:02.308Z,22.19
2023-08-16T08:16:28.903Z,22.16
2023-08-16T08:18:55.605Z,22.20
2023-08-16T08:21:22.696Z,22.19
2023-08-16T08:23:49.362Z,22.77
2023-08-16T08:26:17.443Z,22.96
2023-08-16T08:28:45.311Z,22.88
2023-08-16T08:31:12.581Z,23.37
2023-08-16T08:33:39.628Z,23.62
2023-08-16T08:36:07.815Z,24.32
2023-08-16T08:38:39.345Z,24.20
2023-08-16T08:41:07.622Z,24.38
2023-08-16T08:43:42.396Z,24.32
2023-08-16T08:46:17.315Z,24.49
2023-08-16T08:48:46.367Z,24.67
2023-08-16T08:51:13.049Z,24.77
2023-08-16T08:53:40.167Z,25.61
2023-08-16T08:56:15.631Z,25.67
2023-08-16T08:58:44.916Z,25.64
2023-08-16T09:01:12.469Z,24.84
2023-08-16T09:03:42.060Z,24.23
2023-08-16T09:06:13.328Z,24.75
2023-08-16T09:08:42.361Z,25.16
2023-08-16T09:11:10.366Z,25.12
2023-08-16T09:13:37.479Z,25.23
2023-08-16T09:19:00.237Z,25.99
2023-08-16T09:21:29.941Z,26.75
2023-08-16T09:24:00.889Z,26.34
2023-08-16T09:26:30.788Z,26.25
2023-08-16T09:37:18.571Z,26.39
2023-08-16T09:39:45.366Z,26.29
2023-08-16T09:42:12.141Z,26.24
2023-08-16T09:44:41.868Z,26.98
2023-08-16T09:47:21.364Z,27.12
2023-08-16T09:49:50.294Z,26.73
2023-08-16T09:52:17.736Z,27.06
2023-08-16T09:54:48.161Z,27.06
2023-08-16T09:59:49.488Z,28.01
2023-08-16T10:10:58.787Z,28.77
2023-08-16T10:13:27.737Z,29.37
2023-08-16T10:15:54.850Z,29.18
2023-08-16T10:18:24.336Z,29.34
2023-08-16T10:20:54.893Z,29.29
2023-08-16T10:23:26.261Z,28.84
2023-08-16T10:25:55.585Z,29.10
2023-08-16T10:28:25.092Z,29.37
2023-08-16T10:36:42.557Z,29.55
2023-08-16T10:39:13.680Z,29.26
2023-08-16T10:41:44.949Z,29.58
2023-08-16T10:44:23.053Z,29.38
2023-08-16T10:46:52.619Z,28.73
2023-08-16T10:49:22.875Z,28.63
2023-08-16T10:51:54.343Z,29.10
2023-08-16T10:54:33.774Z,29.38
2023-08-16T10:57:09.218Z,29.54
2023-08-16T10:59:40.508Z,30.07
2023-08-16T11:02:17.832Z,-147.77
2023-08-16T11:04:46.039Z,-147.77
2023-08-16T11:07:15.869Z,-147.77
2023-08-16T11:09:43.016Z,-147.77
2023-08-16T11:12:09.668Z,-147.77
2023-08-16T11:14:36.897Z,-147.77
2023-08-16T11:17:04.365Z,-147.77
2023-08-16T11:19:31.361Z,-147.77
2023-08-16T11:22:04.930Z,-147.77
2023-08-16T11:24:32.670Z,-147.77
2023-08-16T11:26:59.329Z,-147.77
2023-08-16T11:29:26.930Z,-147.77
2023-08-16T11:31:58.307Z,-147.77
2023-08-16T11:34:26.242Z,-147.77
2023-08-16T11:36:53.100Z,-147.77
2023-08-16T11:39:20.747Z,-147.77
2023-08-16T11:41:48.234Z,-147.77
2023-08-16T11:44:14.981Z,-147.77
2023-08-16T11:46:44.406Z,-147.77
2023-08-16T11:49:13.262Z,-147.77
2023-08-16T11:51:43.730Z,-147.77
2023-08-16T11:54:21.236Z,-147.77
2023-08-16T11:56:48.777Z,-147.77
2023-08-16T11:59:28.018Z,-147.77
2023-08-16T12:01:56.692Z,-147.77
2023-08-16T12:04:24.941Z,-147.77
2023-08-16T12:06:51.782Z,-147.77
2023-08-16T12:09:20.976Z,-147.77
2023-08-16T12:11:53.054Z,-147.77
2023-08-16T12:14:20.138Z,-147.77
2023-08-16T12:16:46.864Z,-147.77
2023-08-16T12:19:20.129Z,-147.77
2023-08-16T12:21:47.046Z,-147.77
2023-08-16T12:24:13.847Z,-147.77
2023-08-16T12:26:42.481Z,-147.77
2023-08-16T12:29:09.180Z,-147.77
2023-08-16T12:31:36.143Z,-147.77
2023-08-16T12:34:03.397Z,-147.77
2023-08-16T12:36:30.256Z,-147.77
2023-08-16T12:38:56.885Z,-147.77
2023-08-16T12:41:24.040Z,-147.77
2023-08-16T12:43:52.987Z,-147.77
2023-08-16T12:46:19.816Z,-147.77
2023-08-16T12:48:47.411Z,-147.77
2023-08-16T12:51:17.710Z,-147.77
2023-08-16T12:53:45.810Z,-147.77
2023-08-16T12:56:14.086Z,-147.77
2023-08-16T12:58:55.958Z,-147.77
2023-08-16T13:04:01.471Z,-147.77
2023-08-16T13:06:31.850Z,-147.77
2023-08-16T13:11:33.979Z,-147.77
2023-08-16T13:14:05.345Z,-147.77
2023-08-16T13:16:44.112Z,-147.77
2023-08-16T13:19:24.593Z,-147.77
2023-08-16T13:21:54.862Z,-147.77
2023-08-16T13:24:38.076Z,-147.77
2023-08-16T13:27:17.268Z,-147.77
2023-08-16T13:34:58.053Z,-147.77
2023-08-16T13:37:43.908Z,-147.77
2023-08-16T13:40:20.338Z,-147.77
2023-08-16T13:42:56.083Z,30.07
2023-08-16T13:45:23.304Z,30.61
2023-08-16T13:47:50.112Z,30.90
2023-08-16T13:50:16.757Z,31.10
2023-08-16T13:52:43.406Z,30.56
2023-08-16T13:55:11.042Z,30.42
2023-08-16T13:57:37.661Z,30.47
2023-08-16T14:00:04.731Z,29.72
2023-08-16T14:02:32.097Z,29.73
2023-08-16T14:04:58.746Z,29.85
2023-08-16T14:07:25.472Z,29.67
2023-08-16T14:09:54.219Z,29.62
2023-08-16T14:12:21.110Z,29.58
2023-08-16T14:14:47.836Z,29.60
2023-08-16T14:17:15.074Z,29.54
2023-08-16T14:19:42.314Z,29.59
2023-08-16T14:22:08.929Z,29.55
2023-08-16T14:24:35.593Z,29.41
2023-08-16T14:27:02.257Z,29.29
2023-08-16T14:29:28.912Z,29.24
2023-08-16T14:31:55.557Z,29.19
2023-08-16T14:34:24.097Z,29.15
2023-08-16T14:36:50.928Z,29.06
2023-08-16T14:39:17.634Z,28.95
2023-08-16T14:41:44.277Z,28.95
2023-08-16T14:44:11.042Z,28.80
2023-08-16T14:46:37.702Z,28.73
2023-08-16T14:49:04.541Z,28.64
2023-08-16T14:51:33.221Z,28.62
2023-08-16T14:54:01.571Z,28.53
2023-08-16T14:56:29.600Z,28.45
2023-08-16T14:58:56.278Z,28.40
2023-08-16T15:01:22.944Z,28.33
2023-08-16T15:03:49.784Z,28.29
2023-08-16T15:06:16.556Z,28.18
2023-08-16T15:08:43.215Z,28.14
2023-08-16T15:11:20.425Z,28.05
2023-08-16T15:13:48.251Z,27.94
2023-08-16T15:16:17.965Z,27.88
2023-08-16T15:18:44.776Z,27.79
2023-08-16T15:21:13.591Z,27.65
2023-08-16T15:23:41.020Z,27.50
2023-08-16T15:26:09.549Z,27.29
2023-08-16T15:28:37.791Z,27.24
2023-08-16T15:31:05.609Z,27.12
2023-08-16T15:33:32.422Z,26.97
2023-08-16T15:36:04.736Z,26.04
2023-08-16T15:38:39.939Z,26.04
2023-08-16T15:41:07.759Z,26.04
2023-08-16T15:43:34.995Z,23.98
2023-08-16T15:46:01.858Z,-147.77
2023-08-16T15:48:28.599Z,22.79
2023-08-16T15:50:56.285Z,22.38
2023-08-16T15:53:24.519Z,22.08
2023-08-16T15:55:54.832Z,21.96
2023-08-16T15:58:26.200Z,22.05
2023-08-16T16:01:01.706Z,22.05
2023-08-16T16:03:29.656Z,21.96
2023-08-16T16:05:56.457Z,21.94
2023-08-16T16:08:23.381Z,21.94
2023-08-16T16:10:50.217Z,21.71
2023-08-16T16:13:17.522Z,21.95
2023-08-16T16:15:44.600Z,21.94
2023-08-16T16:18:11.568Z,21.62
2023-08-16T16:20:38.732Z,21.54
2023-08-16T16:23:05.517Z,21.59
2023-08-16T16:25:32.183Z,21.62
2023-08-16T20:04:29.892Z,-147.77
2023-08-16T20:06:57.238Z,-147.77
2023-08-16T20:09:24.224Z,-147.77
2023-08-16T20:11:50.954Z,-147.77
2023-08-16T20:14:17.647Z,-147.77
2023-08-16T20:16:44.604Z,-147.77
2023-08-16T20:19:11.302Z,-147.77
2023-08-16T20:21:37.972Z,-147.77
2023-08-16T20:24:05.013Z,-147.77
2023-08-16T20:26:31.828Z,-147.77
2023-08-16T20:28:58.432Z,-147.77
2023-08-16T20:31:25.226Z,-147.77
2023-08-16T20:33:51.981Z,-147.77
2023-08-16T20:36:18.646Z,-147.77
2023-08-16T20:38:45.321Z,-147.77
2023-08-16T20:41:12.012Z,-147.77
2023-08-16T20:43:39.090Z,-147.77
2023-08-16T20:46:08.023Z,-147.77
2023-08-16T20:48:35.068Z,-147.77
2023-08-16T20:51:01.776Z,-147.77
2023-08-16T20:53:28.544Z,-147.77
2023-08-16T20:55:56.503Z,-147.77
2023-08-16T20:58:23.268Z,-147.77
2023-08-16T21:00:49.872Z,-147.77
2023-08-16T21:03:16.994Z,-147.77
2023-08-16T21:05:43.700Z,-147.77
2023-08-16T21:08:11.058Z,-147.77
2023-08-16T21:10:37.772Z,-147.77
2023-08-16T21:13:04.629Z,-147.77
2023-08-16T21:15:33.169Z,-147.77
2023-08-16T21:17:59.921Z,-147.77
2023-08-16T21:20:26.769Z,-147.77
2023-08-16T21:22:53.489Z,-147.77
2023-08-16T21:25:20.205Z,-147.77
2023-08-16T21:27:46.912Z,-147.77
2023-08-16T21:30:13.617Z,-147.77
2023-08-16T21:32:40.328Z,-147.77
2023-08-16T21:35:08.186Z,-147.77
2023-08-16T21:37:35.030Z,-147.77
2023-08-16T21:40:01.724Z,-147.77
2023-08-16T21:42:29.087Z,-147.77
2023-08-16T21:44:55.749Z,-147.77
2023-08-16T21:47:22.513Z,-147.77
2023-08-16T21:49:49.304Z,-147.77
2023-08-16T21:52:15.909Z,-147.77
2023-08-16T21:54:42.585Z,-147.77
2023-08-16T21:57:10.161Z,-147.77
2023-08-16T21:59:36.793Z,-147.77
2023-08-16T22:02:03.585Z,-147.77
2023-08-16T22:04:30.232Z,-147.77
2023-08-16T22:06:56.874Z,-147.77
2023-08-16T22:09:23.963Z,-147.77
2023-08-16T22:11:50.674Z,-147.77
2023-08-16T22:14:19.620Z,-147.77
2023-08-16T22:16:46.482Z,-147.77
2023-08-16T22:19:13.315Z,-147.77
2023-08-16T22:21:40.637Z,-147.77
2023-08-16T22:24:08.147Z,-147.77
2023-08-16T22:26:35.269Z,-147.77
2023-08-16T22:29:02.632Z,-147.77
2023-08-16T22:31:29.317Z,-147.77
2023-08-16T22:33:56.086Z,-147.77
2023-08-16T22:36:23.554Z,-147.77
2023-08-16T22:38:50.276Z,-147.77
2023-08-16T22:41:17.115Z,-147.77
2023-08-16T22:43:43.915Z,-147.77
2023-08-16T22:46:11.598Z,-147.77
2023-08-16T22:48:38.619Z,-147.77
2023-08-16T22:51:05.512Z,-147.77
2023-08-16T22:53:32.128Z,-147.77
2023-08-16T22:55:58.747Z,-147.77
2023-08-16T22:58:26.151Z,-147.77
2023-08-16T23:00:53.173Z,-147.77
2023-08-16T23:03:19.947Z,-147.77
2023-08-16T23:05:46.659Z,-147.77
2023-08-16T23:08:13.278Z,-147.77
2023-08-16T23:10:43.569Z,-147.77
2023-08-16T23:13:10.247Z,-147.77
2023-08-16T23:15:37.571Z,-147.77
2023-08-16T23:18:05.282Z,-147.77
2023-08-16T23:20:32.232Z,-147.77
2023-08-16T23:22:58.986Z,-147.77
2023-08-16T23:25:25.627Z,-147.77
2023-08-16T23:27:52.420Z,-147.77
2023-08-16T23:30:19.064Z,-147.77
2023-08-16T23:32:45.925Z,-147.77
2023-08-16T23:35:12.754Z,-147.77
2023-08-16T23:37:39.406Z,-147.77
2023-08-16T23:40:07.046Z,-147.77
2023-08-16T23:42:33.677Z,-147.77
2023-08-16T23:45:00.919Z,-147.77
2023-08-16T23:47:27.769Z,-147.77
2023-08-16T23:49:54.721Z,-147.77
2023-08-16T23:52:21.365Z,-147.77
2023-08-16T23:54:48.037Z,-147.77
2023-08-16T23:57:14.794Z,-147.77
2023-08-16T23:59:46.405Z,-147.77
